Time;durP1;ratioP1;P1;durP2;ratioP2;P2;SDS_P1;SDS_P2;PMS_P1;PMS_P2;Temp;Humidity;BMP_temperature;BMP_pressure;BME280_temperature;BME280_humidity;BME280_pressure;Samples;Min_cycle;Max_cycle;Signal;HPM_P1;HPM_P2
2023/01/12 00:02:41;;;;;;;1.50;1.40;;;21.50;60.80;;;;;;4929503;29;20471;-69
2023/01/12 00:05:10;;;;;;;2.13;1.83;;;21.50;60.60;;;;;;4919623;29;20452;-70
2023/01/12 00:07:39;;;;;;;2.57;1.50;;;21.50;60.50;;;;;;4916267;29;20486;-69
2023/01/12 00:10:08;;;;;;;1.57;1.47;;;21.50;60.90;;;;;;4926910;29;20469;-69
2023/01/12 00:12:36;;;;;;;1.50;1.20;;;21.50;60.60;;;;;;4933407;29;20480;-71
2023/01/12 00:15:05;;;;;;;1.73;1.63;;;21.50;61.00;;;;;;4934679;29;20539;-69
2023/01/12 00:17:34;;;;;;;1.80;1.70;;;21.40;61.00;;;;;;4935111;29;20574;-69
2023/01/12 00:20:02;;;;;;;1.70;1.60;;;21.40;61.00;;;;;;4934695;29;20459;-69
2023/01/12 00:22:32;;;;;;;1.47;1.27;;;21.40;60.80;;;;;;4934175;29;20924;-69
2023/01/12 00:25:01;;;;;;;1.90;1.30;;;21.40;60.60;;;;;;4935363;29;20455;-69
2023/01/12 00:27:30;;;;;;;1.77;1.67;;;21.40;60.20;;;;;;4935021;29;20444;-69
2023/01/12 00:29:58;;;;;;;1.40;1.30;;;21.40;60.40;;;;;;4934470;29;20819;-69
2023/01/12 00:32:26;;;;;;;1.20;1.20;;;21.30;60.50;;;;;;4926520;29;20808;-69
2023/01/12 00:34:54;;;;;;;2.63;1.50;;;21.30;60.70;;;;;;4934059;29;20477;-70
2023/01/12 00:37:22;;;;;;;1.70;1.20;;;21.30;60.50;;;;;;4934563;29;20522;-69
2023/01/12 00:39:50;;;;;;;1.63;1.43;;;21.30;60.30;;;;;;4935350;29;20458;-69
2023/01/12 00:45:21;;;;;;;1.43;1.30;;;21.20;61.10;;;;;;4929392;29;20806;-69
2023/01/12 00:47:50;;;;;;;1.80;1.30;;;21.20;61.00;;;;;;4934915;29;20840;-69
2023/01/12 00:50:18;;;;;;;2.17;1.60;;;21.20;61.20;;;;;;4934693;29;20426;-69
2023/01/12 00:52:46;;;;;;;1.70;1.40;;;21.20;61.20;;;;;;4932255;29;20474;-71
2023/01/12 00:55:15;;;;;;;1.37;1.27;;;21.20;60.70;;;;;;4934732;29;20450;-69
2023/01/12 00:57:44;;;;;;;1.90;1.57;;;21.20;60.90;;;;;;4935195;29;20502;-69
2023/01/12 01:00:13;;;;;;;1.53;1.10;;;21.30;60.50;;;;;;4934227;29;20487;-69
2023/01/12 01:02:42;;;;;;;1.87;1.67;;;21.30;60.60;;;;;;4933536;29;20493;-70
2023/01/12 01:05:10;;;;;;;1.30;1.17;;;21.30;60.60;;;;;;4930721;29;20523;-69
2023/01/12 01:07:38;;;;;;;1.40;1.20;;;21.30;60.70;;;;;;4915608;29;20439;-69
2023/01/12 01:10:07;;;;;;;1.80;1.27;;;21.30;60.70;;;;;;4915801;29;20456;-69
2023/01/12 01:12:35;;;;;;;1.50;1.40;;;21.30;60.60;;;;;;4926483;29;20460;-69
2023/01/12 01:15:06;;;;;;;1.43;1.20;;;21.30;60.60;;;;;;4934487;29;20515;-69
2023/01/12 01:17:34;;;;;;;1.00;1.00;;;21.30;60.80;;;;;;4934674;29;20474;-70
2023/01/12 01:20:03;;;;;;;1.03;1.00;;;21.30;60.60;;;;;;4938168;29;20439;-69
2023/01/12 01:22:32;;;;;;;2.83;1.43;;;21.30;60.90;;;;;;4927899;29;20537;-69
2023/01/12 01:25:00;;;;;;;1.30;1.03;;;21.30;60.80;;;;;;4936249;29;20935;-69
2023/01/12 01:27:28;;;;;;;1.43;1.33;;;21.30;60.80;;;;;;4921609;29;20607;-69
2023/01/12 01:29:56;;;;;;;1.27;1.13;;;21.30;60.40;;;;;;4937588;29;20479;-69
2023/01/12 01:32:25;;;;;;;1.13;1.03;;;21.30;60.80;;;;;;4937565;29;20456;-69
2023/01/12 01:34:53;;;;;;;1.03;1.00;;;21.30;60.80;;;;;;4937382;29;20501;-70
2023/01/12 01:37:22;;;;;;;1.47;1.37;;;21.40;60.80;;;;;;4928269;29;20996;-72
2023/01/12 01:39:50;;;;;;;1.77;1.40;;;21.30;60.80;;;;;;4919107;29;20443;-69
2023/01/12 01:42:27;;;;;;;1.40;1.30;;;21.30;60.80;;;;;;4923438;29;20486;-69
2023/01/12 01:44:57;;;;;;;2.33;1.13;;;21.40;60.70;;;;;;4937495;29;20554;-70
2023/01/12 01:47:33;;;;;;;1.20;1.10;;;21.40;60.70;;;;;;4937918;29;20440;-69
2023/01/12 01:50:05;;;;;;;1.07;1.00;;;21.40;60.80;;;;;;4937432;29;20529;-70
2023/01/12 01:52:37;;;;;;;1.33;1.00;;;21.40;60.70;;;;;;4936533;29;20924;-71
2023/01/12 01:55:11;;;;;;;2.93;1.40;;;21.40;60.50;;;;;;4935595;29;21026;-69
2023/01/12 01:57:44;;;;;;;1.27;1.17;;;21.40;60.70;;;;;;4918338;29;20476;-69
2023/01/12 02:00:14;;;;;;;1.07;1.07;;;21.40;60.70;;;;;;4930376;29;20455;-69
2023/01/12 02:02:45;;;;;;;1.13;1.03;;;21.40;60.70;;;;;;4936680;29;20527;-69
2023/01/12 02:05:16;;;;;;;2.57;1.30;;;21.40;60.60;;;;;;4936056;29;20450;-69
2023/01/12 02:07:44;;;;;;;1.70;1.27;;;21.40;60.70;;;;;;4937476;29;20487;-68
2023/01/12 02:10:12;;;;;;;1.30;0.97;;;21.40;60.70;;;;;;4937192;29;20440;-69
2023/01/12 02:18:27;;;;;;;1.40;1.30;;;21.30;60.50;;;;;;4936467;29;20475;-69
2023/01/12 02:21:11;;;;;;;1.10;1.07;;;21.30;60.60;;;;;;4935327;29;20477;-69
2023/01/12 02:24:09;;;;;;;4.20;1.00;;;21.30;60.60;;;;;;4933585;29;20487;-69
2023/01/12 02:27:30;;;;;;;1.30;1.13;;;21.30;60.60;;;;;;4937282;29;20462;-69
2023/01/12 02:30:39;;;;;;;2.17;1.50;;;21.30;60.60;;;;;;4935148;29;20560;-69
2023/01/12 02:33:22;;;;;;;1.27;1.20;;;21.30;60.60;;;;;;4893141;29;20464;-69
2023/01/12 02:35:58;;;;;;;1.50;1.20;;;21.30;60.60;;;;;;4936885;29;20439;-68
2023/01/12 02:38:34;;;;;;;1.40;1.10;;;21.30;60.50;;;;;;4934488;29;20471;-68
2023/01/12 02:41:09;;;;;;;2.60;1.10;;;21.30;60.50;;;;;;4936749;29;20854;-71
2023/01/12 02:43:39;;;;;;;1.27;1.20;;;21.30;60.50;;;;;;4929620;29;20546;-71
2023/01/12 02:46:13;;;;;;;1.80;0.90;;;21.30;60.50;;;;;;4926967;29;20440;-70
2023/01/12 02:48:48;;;;;;;0.90;0.90;;;21.30;60.50;;;;;;4936243;29;20460;-68
2023/01/12 02:51:23;;;;;;;1.90;1.23;;;21.30;60.50;;;;;;4936341;29;20854;-69
2023/01/12 02:53:54;;;;;;;3.30;1.27;;;21.30;60.50;;;;;;4934619;29;21011;-69
2023/01/12 02:56:29;;;;;;;1.20;1.20;;;21.30;60.40;;;;;;4935366;29;20575;-72
2023/01/12 02:59:03;;;;;;;1.47;0.90;;;21.30;60.50;;;;;;4935007;29;20533;-70
2023/01/12 03:01:32;;;;;;;1.90;1.10;;;21.30;60.50;;;;;;4928089;29;20524;-67
2023/01/12 03:04:05;;;;;;;1.30;1.03;;;21.30;60.50;;;;;;4934422;29;20459;-67
2023/01/12 03:06:41;;;;;;;1.40;1.20;;;21.30;60.50;;;;;;4930313;29;20557;-68
2023/01/12 03:09:10;;;;;;;1.27;1.10;;;21.30;60.50;;;;;;4935622;29;20502;-68
2023/01/12 03:11:43;;;;;;;0.90;0.70;;;21.30;60.50;;;;;;4936376;29;20990;-68
2023/01/12 03:14:13;;;;;;;0.93;0.87;;;21.30;60.40;;;;;;4934707;29;20495;-67
2023/01/12 03:16:42;;;;;;;1.00;0.80;;;21.30;60.40;;;;;;4935168;29;20471;-68
2023/01/12 03:19:18;;;;;;;1.80;0.97;;;21.30;60.50;;;;;;4935662;29;20472;-67
2023/01/12 03:21:50;;;;;;;0.83;0.83;;;21.30;60.50;;;;;;4931852;29;20499;-71
2023/01/12 03:24:24;;;;;;;1.07;1.00;;;21.30;60.50;;;;;;4920181;29;20943;-69
2023/01/12 03:26:58;;;;;;;2.40;1.07;;;21.30;60.40;;;;;;4934927;29;20456;-70
2023/01/12 03:29:32;;;;;;;1.47;1.30;;;21.30;60.20;;;;;;4932217;29;20487;-67
2023/01/12 03:32:00;;;;;;;1.30;1.20;;;21.30;60.40;;;;;;4932992;29;20508;-68
2023/01/12 03:34:32;;;;;;;1.80;1.10;;;21.30;60.40;;;;;;4935280;29;20436;-68
2023/01/12 03:37:07;;;;;;;1.13;1.10;;;21.30;60.40;;;;;;4934182;29;20444;-68
2023/01/12 03:39:42;;;;;;;1.73;1.37;;;21.30;60.40;;;;;;4927880;29;20462;-67
2023/01/12 03:42:16;;;;;;;1.90;1.07;;;21.30;60.40;;;;;;4933539;29;20493;-68
2023/01/12 03:44:51;;;;;;;1.37;1.10;;;21.30;60.30;;;;;;4934257;29;20914;-67
2023/01/12 03:47:24;;;;;;;2.47;0.83;;;21.30;60.30;;;;;;4934503;29;20493;-67
2023/01/12 03:49:57;;;;;;;2.20;0.93;;;21.30;60.30;;;;;;4934951;29;20443;-69
2023/01/12 03:52:27;;;;;;;1.40;1.30;;;21.30;60.30;;;;;;4930740;29;20468;-67
2023/01/12 03:54:58;;;;;;;2.20;1.00;;;21.30;60.20;;;;;;4934244;29;20448;-68
2023/01/12 03:57:27;;;;;;;1.43;1.00;;;21.30;60.20;;;;;;4934867;29;20490;-67
2023/01/12 03:59:58;;;;;;;0.83;0.80;;;21.30;60.20;;;;;;4933123;29;20935;-68
2023/01/12 04:02:26;;;;;;;0.70;0.70;;;21.30;60.10;;;;;;4915585;29;20451;-67
2023/01/12 04:04:57;;;;;;;1.43;1.00;;;21.30;60.20;;;;;;4915526;29;20494;-68
2023/01/12 04:07:25;;;;;;;1.63;1.17;;;21.30;60.20;;;;;;4934636;29;20834;-67
2023/01/12 04:09:54;;;;;;;1.27;0.90;;;21.30;60.10;;;;;;4933532;29;20485;-73
2023/01/12 04:12:22;;;;;;;1.67;1.30;;;21.30;60.20;;;;;;4933904;29;20447;-70
2023/01/12 04:14:50;;;;;;;1.40;0.90;;;21.30;60.10;;;;;;4934529;29;20506;-67
2023/01/12 04:17:23;;;;;;;1.73;1.20;;;21.30;60.10;;;;;;4933824;29;20551;-70
2023/01/12 04:19:51;;;;;;;1.10;1.00;;;21.30;60.10;;;;;;4932396;29;20460;-68
2023/01/12 04:25:07;;;;;;;1.03;0.90;;;21.30;60.10;;;;;;4935036;29;20431;-67
2023/01/12 04:27:40;;;;;;;1.17;1.03;;;21.30;60.10;;;;;;4934565;29;20458;-68
2023/01/12 04:30:10;;;;;;;2.70;1.30;;;21.30;60.10;;;;;;4931369;29;20470;-69
2023/01/12 04:32:38;;;;;;;3.17;1.00;;;21.30;60.10;;;;;;4933976;29;20461;-67
2023/01/12 04:35:07;;;;;;;2.30;0.90;;;21.30;60.10;;;;;;4931040;29;21001;-67
2023/01/12 04:37:37;;;;;;;3.30;1.17;;;21.30;60.10;;;;;;4934430;29;20444;-67
2023/01/12 04:40:06;;;;;;;3.80;1.23;;;21.30;60.10;;;;;;4933595;29;20467;-67
2023/01/12 04:45:21;;;;;;;1.87;1.00;;;21.30;60.10;;;;;;4933124;29;20519;-68
2023/01/12 04:47:49;;;;;;;0.87;0.83;;;21.30;60.00;;;;;;4935024;29;20436;-68
2023/01/12 04:50:17;;;;;;;2.10;1.13;;;21.30;59.90;;;;;;4933786;29;20481;-68
2023/01/12 04:52:47;;;;;;;1.67;1.10;;;21.30;59.80;;;;;;4937976;29;20562;-69
2023/01/12 04:55:15;;;;;;;1.37;1.00;;;21.30;60.00;;;;;;4936646;29;20460;-68
2023/01/12 04:57:43;;;;;;;2.93;1.30;;;21.30;59.80;;;;;;4937475;29;20471;-67
2023/01/12 05:00:12;;;;;;;1.37;1.00;;;21.30;59.90;;;;;;4935627;29;20491;-68
2023/01/12 05:02:41;;;;;;;2.40;0.83;;;21.30;59.70;;;;;;4937236;29;20883;-67
2023/01/12 05:05:09;;;;;;;1.60;1.07;;;21.30;59.90;;;;;;4934314;29;20469;-70
2023/01/12 05:10:21;;;;;;;1.33;0.93;;;21.30;59.90;;;;;;4950914;29;20825;-67
2023/01/12 05:10:26;;;;;;;1.63;1.07;;;21.30;59.90;;;;;;4937681;29;20451;-68
2023/01/12 05:12:55;;;;;;;2.00;1.33;;;21.30;59.80;;;;;;4933948;29;20459;-67
2023/01/12 05:15:23;;;;;;;1.67;0.90;;;21.30;59.90;;;;;;4933189;29;20594;-67
2023/01/12 05:17:53;;;;;;;1.20;1.20;;;21.30;59.90;;;;;;4932382;29;20453;-68
2023/01/12 05:20:21;;;;;;;1.03;0.90;;;21.30;59.80;;;;;;4933564;29;20801;-68
2023/01/12 05:22:51;;;;;;;1.13;1.03;;;21.30;59.80;;;;;;4932229;29;20939;-67
2023/01/12 05:25:19;;;;;;;1.27;1.00;;;21.30;59.90;;;;;;4934582;29;21083;-68
2023/01/12 05:27:49;;;;;;;1.20;0.80;;;21.30;59.70;;;;;;4935588;29;20509;-67
2023/01/12 05:30:17;;;;;;;1.97;1.10;;;21.30;59.40;;;;;;4931909;29;20455;-71
2023/01/12 05:32:46;;;;;;;1.33;1.13;;;21.30;59.50;;;;;;4934949;29;20471;-68
2023/01/12 05:35:14;;;;;;;1.33;0.80;;;21.30;59.70;;;;;;4932053;29;20487;-71
2023/01/12 05:37:42;;;;;;;3.30;1.87;;;21.30;59.50;;;;;;4935338;29;20546;-75
2023/01/12 05:40:11;;;;;;;2.83;1.00;;;21.30;59.70;;;;;;4926101;29;20477;-70
2023/01/12 05:45:28;;;;;;;1.43;0.70;;;21.30;59.20;;;;;;4933100;29;20870;-68
2023/01/12 05:47:57;;;;;;;0.97;0.90;;;21.30;59.70;;;;;;4932762;29;20516;-70
2023/01/12 05:50:25;;;;;;;4.00;1.27;;;21.30;59.90;;;;;;4935005;29;20467;-69
2023/01/12 05:53:07;;;;;;;2.20;1.03;;;21.30;59.70;;;;;;4926857;29;20511;-72
2023/01/12 05:55:37;;;;;;;1.67;1.00;;;21.30;59.80;;;;;;4931815;29;20459;-68
2023/01/12 05:58:05;;;;;;;1.17;1.00;;;21.30;59.90;;;;;;4933667;29;20566;-68
2023/01/12 06:00:35;;;;;;;2.50;1.10;;;21.30;59.80;;;;;;4927790;29;21880;-71
2023/01/12 06:03:03;;;;;;;1.37;1.17;;;21.30;60.00;;;;;;4932472;29;20478;-70
2023/01/12 06:05:31;;;;;;;1.07;0.73;;;21.30;60.00;;;;;;4931609;29;20994;-69
2023/01/12 06:08:01;;;;;;;2.40;0.80;;;21.30;60.10;;;;;;4935771;29;20497;-70
2023/01/12 06:10:29;;;;;;;1.87;1.07;;;21.30;60.20;;;;;;4933505;29;20638;-70
2023/01/12 06:15:44;;;;;;;2.50;1.20;;;21.30;60.10;;;;;;4928748;29;20459;-70
2023/01/12 06:18:13;;;;;;;2.40;1.07;;;21.20;60.00;;;;;;4930348;29;20959;-70
2023/01/12 06:20:41;;;;;;;1.20;1.00;;;21.20;60.50;;;;;;4928735;29;20847;-71
2023/01/12 06:23:09;;;;;;;3.43;1.10;;;21.20;60.20;;;;;;4929833;29;20462;-69
2023/01/12 06:25:37;;;;;;;1.20;0.80;;;21.20;60.00;;;;;;4927654;29;20537;-70
2023/01/12 06:28:06;;;;;;;3.13;1.10;;;21.20;60.20;;;;;;4933546;29;20968;-69
2023/01/12 06:30:34;;;;;;;1.77;1.30;;;21.10;60.20;;;;;;4932097;29;20447;-70
2023/01/12 06:33:04;;;;;;;0.90;0.90;;;21.10;60.40;;;;;;4931643;29;20874;-71
2023/01/12 06:35:32;;;;;;;2.07;1.30;;;21.10;60.00;;;;;;4925004;29;20527;-70
2023/01/12 06:38:00;;;;;;;2.50;0.97;;;21.10;60.20;;;;;;4931976;29;21201;-71
2023/01/12 06:40:28;;;;;;;1.43;1.13;;;21.10;60.20;;;;;;4931327;29;20506;-71
2023/01/12 06:42:56;;;;;;;1.10;1.00;;;21.10;60.10;;;;;;4930265;29;20446;-71
2023/01/12 06:45:24;;;;;;;2.00;1.10;;;21.10;60.20;;;;;;4931629;29;20839;-69
2023/01/12 06:47:54;;;;;;;2.67;1.23;;;21.10;60.40;;;;;;4932504;29;20511;-71
2023/01/12 06:50:23;;;;;;;1.43;1.10;;;21.20;60.60;;;;;;4934465;29;20455;-71
2023/01/12 06:52:52;;;;;;;4.30;1.40;;;21.20;60.80;;;;;;4935837;29;20449;-70
2023/01/12 06:55:20;;;;;;;1.53;1.00;;;21.20;60.70;;;;;;4935917;29;20543;-70
2023/01/12 06:57:48;;;;;;;3.00;1.37;;;21.20;60.80;;;;;;4935833;29;20482;-69
2023/01/12 07:00:16;;;;;;;3.60;1.40;;;21.20;60.80;;;;;;4934500;29;20495;-70
2023/01/12 07:02:45;;;;;;;2.63;1.20;;;21.30;60.80;;;;;;4932734;29;21041;-69
2023/01/12 07:05:13;;;;;;;3.10;1.40;;;21.30;60.50;;;;;;4922360;29;20457;-69
2023/01/12 07:07:43;;;;;;;1.87;1.20;;;21.30;60.20;;;;;;4932267;29;20446;-69
2023/01/12 07:10:12;;;;;;;1.17;1.07;;;21.30;60.10;;;;;;4923914;29;20470;-71
2023/01/12 07:12:40;;;;;;;3.80;1.20;;;21.30;60.30;;;;;;4931091;29;20547;-71
2023/01/12 07:15:09;;;;;;;3.50;1.40;;;21.30;60.20;;;;;;4934484;29;20580;-70
2023/01/12 07:17:37;;;;;;;2.00;1.30;;;21.30;60.10;;;;;;4933849;29;20447;-68
2023/01/12 07:20:06;;;;;;;2.27;1.03;;;21.30;60.10;;;;;;4933520;29;20478;-70
2023/01/12 07:22:35;;;;;;;4.20;1.60;;;21.30;60.00;;;;;;4928187;29;20935;-68
2023/01/12 07:25:05;;;;;;;2.53;1.50;;;21.30;59.90;;;;;;4933850;29;20458;-69
2023/01/12 07:27:33;;;;;;;1.97;1.73;;;21.20;60.00;;;;;;4933516;29;20490;-69
2023/01/12 07:30:01;;;;;;;0.87;0.70;;;21.20;59.80;;;;;;4933759;29;20792;-69
2023/01/12 07:32:29;;;;;;;1.33;1.23;;;21.20;59.70;;;;;;4933928;29;20451;-69
2023/01/12 07:34:57;;;;;;;5.40;1.37;;;21.20;60.10;;;;;;4933463;29;20503;-68
2023/01/12 07:37:25;;;;;;;1.60;1.50;;;21.20;59.90;;;;;;4932885;29;20506;-70
2023/01/12 07:39:53;;;;;;;2.43;1.27;;;21.10;60.30;;;;;;4926461;29;20501;-69
2023/01/12 07:42:26;;;;;;;1.60;1.00;;;21.10;59.80;;;;;;4932795;29;20484;-69
2023/01/12 07:44:54;;;;;;;2.03;1.43;;;21.10;60.10;;;;;;4933076;29;20454;-70
2023/01/12 07:47:22;;;;;;;1.67;1.27;;;21.10;60.00;;;;;;4932934;29;20459;-70
2023/01/12 07:49:50;;;;;;;0.77;0.77;;;21.10;60.10;;;;;;4934542;29;20538;-72
2023/01/12 07:52:18;;;;;;;2.53;1.20;;;21.10;59.70;;;;;;4934758;29;20504;-68
2023/01/12 07:54:46;;;;;;;2.50;1.20;;;21.10;59.80;;;;;;4934219;29;20442;-69
2023/01/12 07:57:14;;;;;;;1.73;1.37;;;21.10;59.90;;;;;;4933797;29;20486;-69
2023/01/12 07:59:44;;;;;;;1.63;1.13;;;21.10;60.00;;;;;;4933291;29;21013;-69
2023/01/12 08:02:15;;;;;;;1.00;0.80;;;21.10;60.00;;;;;;4932520;29;20464;-70
2023/01/12 08:04:44;;;;;;;1.03;0.80;;;21.20;60.10;;;;;;4933216;29;20815;-69
2023/01/12 08:07:13;;;;;;;1.83;1.20;;;21.20;60.10;;;;;;4933381;29;20552;-69
2023/01/12 08:09:41;;;;;;;2.70;1.40;;;21.20;60.20;;;;;;4935035;29;20455;-69
2023/01/12 08:12:09;;;;;;;3.13;1.60;;;21.20;60.00;;;;;;4935954;29;20474;-69
2023/01/12 08:14:41;;;;;;;1.20;1.10;;;21.30;59.90;;;;;;4934786;29;21033;-68
2023/01/12 08:17:17;;;;;;;1.03;0.93;;;21.30;59.80;;;;;;4931661;29;20463;-74
2023/01/12 08:19:51;;;;;;;1.97;1.30;;;21.30;59.90;;;;;;4933516;29;20498;-68
2023/01/12 08:22:22;;;;;;;1.87;1.27;;;21.30;59.50;;;;;;4930157;29;20456;-71
2023/01/12 08:24:54;;;;;;;2.20;1.13;;;21.30;59.80;;;;;;4930084;29;20480;-70
2023/01/12 08:27:25;;;;;;;2.73;1.10;;;21.30;59.60;;;;;;4934316;29;20968;-71
2023/01/12 08:29:57;;;;;;;1.90;1.03;;;21.30;59.70;;;;;;4937500;29;20947;-69
2023/01/12 08:32:28;;;;;;;1.43;1.33;;;21.30;59.60;;;;;;4938309;29;20914;-70
2023/01/12 08:35:00;;;;;;;1.83;0.93;;;21.30;59.90;;;;;;4931425;29;20466;-69
2023/01/12 08:37:32;;;;;;;9.43;1.93;;;21.30;60.10;;;;;;4932470;29;20840;-68
2023/01/12 08:40:01;;;;;;;1.43;1.07;;;21.30;60.30;;;;;;4929379;29;20482;-68
2023/01/12 08:42:29;;;;;;;0.87;0.87;;;21.30;60.20;;;;;;4937625;29;20450;-69
2023/01/12 08:44:59;;;;;;;1.27;1.17;;;21.30;60.10;;;;;;4936196;29;20459;-68
2023/01/12 08:47:29;;;;;;;1.20;1.13;;;21.30;60.50;;;;;;4937582;29;20865;-68
2023/01/12 08:49:59;;;;;;;1.00;1.00;;;21.30;60.50;;;;;;4937535;29;20507;-68
2023/01/12 08:52:30;;;;;;;1.80;1.17;;;21.30;60.30;;;;;;4936900;29;21013;-69
2023/01/12 08:54:58;;;;;;;3.43;1.00;;;21.30;60.20;;;;;;4938063;29;20505;-67
2023/01/12 08:57:26;;;;;;;2.00;1.23;;;21.30;60.40;;;;;;4933474;29;20450;-68
2023/01/12 08:59:55;;;;;;;2.23;1.10;;;21.30;60.30;;;;;;4936858;29;20513;-68
2023/01/12 09:02:24;;;;;;;1.80;1.20;;;21.30;60.30;;;;;;4935079;29;20464;-69
2023/01/12 09:04:53;;;;;;;1.47;1.37;;;21.40;60.20;;;;;;4932909;29;20539;-70
2023/01/12 09:07:21;;;;;;;1.50;1.10;;;21.40;60.50;;;;;;4937443;29;20478;-69
2023/01/12 09:09:50;;;;;;;2.33;0.93;;;21.40;60.10;;;;;;4935929;29;20537;-67
2023/01/12 09:12:18;;;;;;;1.10;0.93;;;21.40;60.20;;;;;;4937602;29;20445;-68
2023/01/12 09:14:46;;;;;;;2.43;1.50;;;21.50;60.30;;;;;;4928432;29;21029;-67
2023/01/12 09:17:14;;;;;;;1.17;1.07;;;21.50;60.20;;;;;;4934371;29;20495;-68
2023/01/12 09:19:48;;;;;;;1.43;1.33;;;21.60;60.00;;;;;;4931343;29;20510;-68
2023/01/12 09:22:18;;;;;;;2.23;1.50;;;21.60;60.30;;;;;;4933854;29;20467;-67
2023/01/12 09:24:46;;;;;;;1.80;1.33;;;21.60;59.60;;;;;;4935397;29;20958;-69
2023/01/12 09:27:17;;;;;;;1.90;1.20;;;21.70;59.90;;;;;;4933600;29;20453;-67
2023/01/12 09:29:46;;;;;;;2.77;1.17;;;21.70;59.80;;;;;;4933582;29;20519;-68
2023/01/12 09:32:14;;;;;;;1.17;1.07;;;21.70;59.90;;;;;;4937080;29;20447;-69
2023/01/12 09:34:47;;;;;;;0.80;0.80;;;21.70;59.80;;;;;;4935405;29;20448;-68
2023/01/12 09:37:15;;;;;;;1.27;1.10;;;21.70;59.60;;;;;;4931276;29;20455;-68
2023/01/12 09:39:44;;;;;;;1.73;1.30;;;21.70;59.90;;;;;;4932670;29;20567;-70
2023/01/12 09:48:06;;;;;;;1.67;1.23;;;21.70;59.90;;;;;;4942411;29;20468;-68
2023/01/12 09:50:36;;;;;;;1.57;1.30;;;21.70;60.10;;;;;;4934074;29;20450;-68
2023/01/12 09:53:12;;;;;;;2.20;1.60;;;21.60;59.70;;;;;;4935817;29;20495;-68
2023/01/12 09:55:49;;;;;;;1.43;1.33;;;21.60;59.60;;;;;;4935745;29;20442;-69
2023/01/12 09:58:30;;;;;;;1.53;1.43;;;21.60;60.10;;;;;;4932631;29;20527;-69
2023/01/12 10:00:59;;;;;;;2.30;1.50;;;21.60;59.60;;;;;;4935866;29;20478;-69
2023/01/12 10:03:30;;;;;;;2.10;1.20;;;21.60;59.60;;;;;;4935495;29;20819;-68
2023/01/12 10:06:00;;;;;;;0.93;0.90;;;21.60;59.90;;;;;;4935787;29;20457;-69
2023/01/12 10:08:32;;;;;;;1.47;1.30;;;21.60;59.70;;;;;;4932573;29;20515;-69
2023/01/12 10:11:10;;;;;;;1.10;1.00;;;21.60;59.70;;;;;;4931881;29;20967;-69
2023/01/12 10:14:13;;;;;;;4.40;1.50;;;21.60;60.00;;;;;;4932887;29;20525;-69
2023/01/12 10:16:53;;;;;;;1.73;1.60;;;21.60;59.80;;;;;;4931565;29;20462;-69
2023/01/12 10:19:26;;;;;;;1.00;1.00;;;21.60;59.90;;;;;;4924600;29;20469;-70
2023/01/12 10:21:55;;;;;;;1.47;1.23;;;21.70;60.20;;;;;;4933600;29;20470;-70
2023/01/12 10:24:25;;;;;;;1.63;1.00;;;21.70;59.90;;;;;;4935698;29;20491;-70
2023/01/12 10:27:02;;;;;;;2.23;1.30;;;21.70;59.80;;;;;;4932578;29;20981;-70
2023/01/12 10:29:31;;;;;;;1.57;1.37;;;21.70;59.80;;;;;;4932587;29;20551;-71
2023/01/12 10:32:00;;;;;;;1.33;1.20;;;21.70;59.50;;;;;;4935580;29;20452;-70
2023/01/12 10:34:29;;;;;;;1.33;1.23;;;21.80;59.40;;;;;;4934318;29;20475;-70
2023/01/12 10:37:09;;;;;;;1.90;0.93;;;21.80;59.80;;;;;;4935130;29;20531;-69
2023/01/12 10:39:38;;;;;;;1.07;0.97;;;21.80;59.60;;;;;;4931154;29;20488;-69
2023/01/12 10:45:19;;;;;;;2.07;1.00;;;21.80;59.10;;;;;;4932581;29;20550;-69
2023/01/12 10:47:49;;;;;;;1.20;1.00;;;21.80;59.40;;;;;;4934465;29;20452;-69
2023/01/12 10:50:26;;;;;;;1.10;0.77;;;21.80;59.30;;;;;;4931404;29;20868;-68
2023/01/12 10:52:58;;;;;;;1.20;1.10;;;21.80;59.30;;;;;;4931274;29;20455;-69
2023/01/12 10:55:32;;;;;;;2.07;1.10;;;21.80;59.50;;;;;;4935199;29;20484;-68
2023/01/12 10:58:02;;;;;;;1.43;1.33;;;21.80;59.50;;;;;;4932269;29;20473;-68
2023/01/12 11:00:30;;;;;;;1.70;1.00;;;21.80;59.30;;;;;;4934565;29;20538;-69
2023/01/12 11:02:58;;;;;;;2.30;1.13;;;21.80;59.30;;;;;;4933329;29;20587;-69
2023/01/12 11:05:30;;;;;;;1.73;0.80;;;21.80;59.20;;;;;;4931406;29;20451;-69
2023/01/12 11:07:58;;;;;;;1.10;1.00;;;21.80;59.20;;;;;;4934266;29;21289;-69
2023/01/12 11:10:28;;;;;;;1.23;1.00;;;21.70;59.10;;;;;;4935439;29;20532;-71
2023/01/12 11:12:59;;;;;;;1.90;1.03;;;21.70;59.30;;;;;;4933660;29;21318;-69
2023/01/12 11:15:29;;;;;;;2.53;1.27;;;21.70;59.30;;;;;;4931882;29;20519;-69
2023/01/12 11:18:28;;;;;;;1.90;1.07;;;21.70;59.30;;;;;;4932409;29;20796;-70
2023/01/12 11:21:01;;;;;;;1.07;1.07;;;21.70;59.40;;;;;;4930952;29;20502;-69
2023/01/12 11:23:34;;;;;;;2.63;1.30;;;21.70;59.30;;;;;;4930577;29;20516;-69
2023/01/12 11:26:08;;;;;;;2.27;1.53;;;21.70;59.40;;;;;;4935190;29;20551;-70
2023/01/12 11:28:39;;;;;;;2.73;1.00;;;21.70;59.10;;;;;;4933367;29;20462;-69
2023/01/12 11:31:16;;;;;;;0.60;0.57;;;21.70;59.40;;;;;;4931694;29;20468;-70
2023/01/12 11:33:49;;;;;;;1.00;1.00;;;21.70;59.60;;;;;;4933778;29;20487;-70
2023/01/12 11:36:20;;;;;;;1.17;1.07;;;21.70;59.30;;;;;;4933945;29;20452;-70
2023/01/12 11:38:51;;;;;;;0.90;0.90;;;21.70;59.10;;;;;;4926100;29;20451;-69
2023/01/12 11:41:24;;;;;;;2.10;0.93;;;21.70;59.40;;;;;;4926804;29;20578;-71
2023/01/12 11:43:59;;;;;;;1.70;1.10;;;21.70;59.20;;;;;;4930262;29;20511;-70
2023/01/12 11:46:36;;;;;;;1.20;1.10;;;21.70;59.10;;;;;;4934372;29;20556;-71
2023/01/12 11:49:19;;;;;;;1.20;0.90;;;21.80;59.30;;;;;;4932821;29;20475;-71
2023/01/12 11:51:49;;;;;;;2.70;1.10;;;21.80;59.00;;;;;;4930166;29;20463;-69
2023/01/12 11:54:19;;;;;;;1.00;0.90;;;21.80;58.90;;;;;;4932934;29;20471;-69
2023/01/12 11:57:11;;;;;;;1.37;0.93;;;21.90;58.90;;;;;;4931012;29;20456;-69
2023/01/12 11:59:52;;;;;;;2.00;1.07;;;21.90;58.70;;;;;;4931882;29;20452;-70
2023/01/12 12:02:32;;;;;;;1.20;1.10;;;21.90;58.80;;;;;;4925875;29;20475;-70
2023/01/12 12:05:15;;;;;;;1.93;0.87;;;22.00;58.80;;;;;;4930790;29;20460;-70
2023/01/12 12:07:58;;;;;;;1.10;1.00;;;22.00;58.50;;;;;;4926680;29;20516;-70
2023/01/12 12:10:33;;;;;;;1.57;0.97;;;22.00;58.60;;;;;;4933949;29;20531;-70
2023/01/12 12:13:25;;;;;;;1.27;1.07;;;22.00;58.40;;;;;;4931798;29;20452;-70
2023/01/12 12:16:07;;;;;;;2.20;1.00;;;22.00;58.40;;;;;;4923997;29;20456;-70
2023/01/12 12:18:50;;;;;;;0.97;0.87;;;22.00;58.50;;;;;;4934675;29;20455;-70
2023/01/12 12:21:36;;;;;;;1.40;1.27;;;22.00;58.30;;;;;;4931785;29;20495;-70
2023/01/12 12:24:14;;;;;;;2.03;1.03;;;22.00;58.20;;;;;;4932689;29;20551;-70
2023/01/12 12:26:48;;;;;;;1.40;1.20;;;22.00;58.40;;;;;;4931226;29;20463;-71
2023/01/12 12:29:31;;;;;;;1.30;1.20;;;21.90;58.40;;;;;;4927393;29;20440;-71
2023/01/12 12:32:16;;;;;;;1.10;0.90;;;21.90;58.30;;;;;;4929383;29;20476;-70
2023/01/12 12:35:10;;;;;;;1.10;0.90;;;21.80;58.50;;;;;;4927650;29;20491;-70
2023/01/12 12:37:50;;;;;;;0.93;0.87;;;21.80;58.50;;;;;;4933228;29;20550;-70
2023/01/12 12:40:31;;;;;;;1.40;1.30;;;21.70;58.70;;;;;;4930515;29;20850;-71
2023/01/12 12:46:20;;;;;;;1.00;0.90;;;21.70;58.90;;;;;;4929610;29;20995;-71
2023/01/12 12:48:57;;;;;;;3.73;0.90;;;21.70;59.00;;;;;;4927382;29;20452;-70
2023/01/12 12:51:30;;;;;;;1.63;1.03;;;21.70;59.00;;;;;;4931529;29;20812;-70
2023/01/12 12:54:01;;;;;;;1.63;0.97;;;21.70;59.20;;;;;;4926846;29;20462;-70
2023/01/12 12:56:31;;;;;;;1.67;0.90;;;21.70;59.00;;;;;;4932617;29;20492;-70
2023/01/12 12:59:01;;;;;;;1.20;1.10;;;21.70;59.20;;;;;;4927200;29;20540;-70
2023/01/12 13:01:42;;;;;;;1.37;1.20;;;21.70;59.20;;;;;;4929269;29;20637;-71
2023/01/12 13:04:13;;;;;;;1.47;1.37;;;21.70;59.40;;;;;;4930359;29;20574;-70
2023/01/12 13:06:46;;;;;;;3.30;2.83;;;21.70;59.40;;;;;;4931546;29;20466;-70
2023/01/12 13:09:38;;;;;;;4.27;1.70;;;21.80;59.40;;;;;;4934946;29;20456;-70
2023/01/12 13:12:21;;;;;;;1.80;1.70;;;21.80;59.30;;;;;;4934609;29;20463;-70
2023/01/12 13:15:16;;;;;;;2.37;2.17;;;21.80;59.20;;;;;;4929506;29;20506;-70
2023/01/12 13:17:47;;;;;;;3.50;2.80;;;21.80;59.60;;;;;;4930450;29;20476;-71
2023/01/12 13:21:01;;;;;;;3.70;1.90;;;21.80;59.30;;;;;;4932855;29;20460;-70
2023/01/12 13:23:50;;;;;;;2.93;2.10;;;21.80;59.40;;;;;;4930568;29;20478;-71
2023/01/12 13:26:41;;;;;;;2.00;1.90;;;21.80;59.10;;;;;;4934887;29;20550;-71
2023/01/12 13:29:44;;;;;;;2.60;2.40;;;21.80;59.20;;;;;;4930378;29;20508;-72
2023/01/12 13:32:35;;;;;;;2.57;2.37;;;21.70;59.10;;;;;;4928990;29;20489;-69
2023/01/12 13:35:05;;;;;;;3.07;2.20;;;21.70;59.10;;;;;;4933204;29;20460;-70
2023/01/12 13:37:43;;;;;;;3.43;2.00;;;21.70;59.10;;;;;;4931438;29;20893;-68
2023/01/12 13:40:19;;;;;;;3.90;2.30;;;21.70;59.50;;;;;;4934086;29;20446;-67
2023/01/12 13:45:36;;;;;;;5.53;2.60;;;21.60;59.60;;;;;;4936030;29;20499;-68
2023/01/12 13:48:07;;;;;;;2.93;1.87;;;21.60;59.40;;;;;;4930435;29;20946;-67
2023/01/12 13:50:36;;;;;;;4.40;2.37;;;21.60;59.60;;;;;;4933601;29;20483;-66